Copper Canyon, Texas
Current Conditions -  °F | °C
As of 6:53 AM on Monday 22 Dec 2014 (Local Time) from KDFW Reporting Station
Few Clouds Few Clouds  
Wind Chill: 50°   Ceiling: Unl
Heat Index: 50°   Visibility: 10mi
Dew Point: 47°   Wind: 10mph
Humidity: 89%   Direction: 180°S
Pressure: 29.58"   Gusts: NA
Location:  33.0461°N, 96.9938°W
Report Text: KDFW 221253Z 18009KT 10SM FEW017 FEW250 10/08 A2958 RMK AO2 SLP016 T01000083 $
Loading
Personal Weather Stations






























Interactive Weather Map New forecast layout! Learn more

10-Day Weather Forecast

Advertisements
Track Severe Weather on mobile